Time;durP1;ratioP1;P1;durP2;ratioP2;P2;SDS_P1;SDS_P2;PMS_P1;PMS_P2;Temp;Humidity;BMP_temperature;BMP_pressure;BME280_temperature;BME280_humidity;BME280_pressure;Samples;Min_cycle;Max_cycle;Signal;HPM_P1;HPM_P2
2023/08/13 00:01:22;;;;;;;;;;;;;;;-140.72;100.00;52561.31;6308986;22;19925;-67
2023/08/13 00:03:47;;;;;;;;;;;;;;;-140.72;100.00;52587.69;6308271;22;19918;-67
2023/08/13 00:06:12;;;;;;;;;;;;;;;-140.72;100.00;52553.19;6307795;22;19917;-68
2023/08/13 00:08:38;;;;;;;;;;;;;;;-140.72;100.00;52565.38;6307028;22;19933;-67
2023/08/13 00:11:08;;;;;;;;;;;;;;;-140.72;100.00;52583.63;6307958;22;19911;-67
2023/08/13 00:13:33;;;;;;;;;;;;;;;-140.72;100.00;52569.44;6308437;22;19911;-67
2023/08/13 00:15:58;;;;;;;;;;;;;;;-140.72;100.00;52569.44;6307954;22;19911;-67
2023/08/13 00:18:23;;;;;;;;;;;;;;;-140.72;100.00;52585.66;6307040;22;19911;-67
2023/08/13 00:20:49;;;;;;;;;;;;;;;-140.72;100.00;52577.53;6307810;22;19915;-67
2023/08/13 00:23:14;;;;;;;;;;;;;;;-140.72;100.00;52571.47;6305595;22;19911;-67
2023/08/13 00:25:39;;;;;;;;;;;;;;;-140.72;100.00;52610.00;6309414;22;19943;-67
2023/08/13 00:28:13;;;;;;;;;;;;;;;-140.72;100.00;52577.53;6305775;22;19919;-67
2023/08/13 00:30:39;;;;;;;;;;;;;;;-140.72;100.00;52630.31;6308264;22;19922;-67
2023/08/13 00:33:04;;;;;;;;;;;;;;;-140.72;100.00;52597.84;6308626;22;19915;-67
2023/08/13 00:35:31;;;;;;;;;;;;;;;-140.72;100.00;52618.13;6306566;22;19914;-67
2023/08/13 00:37:56;;;;;;;;;;;;;;;-140.72;100.00;52640.44;6308239;22;19965;-67
2023/08/13 00:40:22;;;;;;;;;;;;;;;-140.72;100.00;52618.13;6308393;22;19910;-67
2023/08/13 00:42:47;;;;;;;;;;;;;;;-140.72;100.00;52595.81;6308161;22;19989;-67
2023/08/13 00:45:12;;;;;;;;;;;;;;;-140.72;100.00;52587.69;6307500;22;19911;-66
2023/08/13 00:48:00;;;;;;;;;;;;;;;-140.72;100.00;52630.31;6307213;22;19911;-66
2023/08/13 00:50:25;;;;;;;;;;;;;;;-140.72;100.00;52605.94;6306568;22;19986;-67
2023/08/13 00:53:06;;;;;;;;;;;;;;;-140.72;100.00;52616.09;6308142;22;19988;-67
2023/08/13 00:55:32;;;;;;;;;;;;;;;-140.72;100.00;52599.88;6307955;22;19992;-67
2023/08/13 00:57:58;;;;;;;;;;;;;;;-140.72;100.00;52581.59;6308051;22;19911;-67
2023/08/13 01:00:23;;;;;;;;;;;;;;;-140.72;100.00;52626.25;6307827;22;19914;-67
2023/08/13 01:02:53;;;;;;;;;;;;;;;-140.72;100.00;52626.25;6307503;22;19985;-67
2023/08/13 01:05:21;;;;;;;;;;;;;;;-140.72;100.00;52603.94;6307994;22;20658;-66
2023/08/13 01:07:58;;;;;;;;;;;;;;;-140.72;100.00;52616.09;6308085;22;19972;-67
2023/08/13 01:10:34;;;;;;;;;;;;;;;-140.72;100.00;52601.91;6306489;22;19993;-67
2023/08/13 01:13:12;;;;;;;;;;;;;;;-140.72;100.00;52561.31;6307934;22;20490;-67
2023/08/13 01:15:38;;;;;;;;;;;;;;;-140.72;100.00;52622.19;6308007;22;19911;-67
2023/08/13 01:18:05;;;;;;;;;;;;;;;-140.72;100.00;52597.84;6306418;22;19992;-67
2023/08/13 01:20:31;;;;;;;;;;;;;;;-140.72;100.00;52620.16;6308289;22;19911;-67
2023/08/13 01:22:57;;;;;;;;;;;;;;;-140.72;100.00;52614.06;6307975;22;19950;-67
2023/08/13 01:25:25;;;;;;;;;;;;;;;-140.72;100.00;52565.38;6309229;22;20346;-67
2023/08/13 01:27:51;;;;;;;;;;;;;;;-140.72;100.00;52644.50;6308048;22;20357;-67
2023/08/13 01:30:20;;;;;;;;;;;;;;;-140.72;100.00;52597.84;6307905;22;19911;-67
2023/08/13 01:32:54;;;;;;;;;;;;;;;-140.72;100.00;52634.38;6306178;22;19914;-67
2023/08/13 01:35:21;;;;;;;;;;;;;;;-140.72;100.00;52610.00;6308033;22;19918;-67
2023/08/13 01:37:47;;;;;;;;;;;;;;;-140.72;100.00;52638.41;6307467;22;19918;-67
2023/08/13 01:40:12;;;;;;;;;;;;;;;-140.72;100.00;52603.94;6307797;22;19911;-67
2023/08/13 01:42:37;;;;;;;;;;;;;;;-140.72;100.00;52618.13;6307430;22;19941;-67
2023/08/13 01:45:02;;;;;;;;;;;;;;;-140.72;100.00;52638.41;6307713;22;19911;-67
2023/08/13 01:47:28;;;;;;;;;;;;;;;-140.72;100.00;52634.38;6308074;22;20003;-67
2023/08/13 01:49:54;;;;;;;;;;;;;;;-140.72;100.00;52624.22;6305448;22;20289;-67
2023/08/13 01:52:19;;;;;;;;;;;;;;;-140.72;100.00;52628.28;6307362;22;20278;-67
2023/08/13 01:54:44;;;;;;;;;;;;;;;-140.72;100.00;52646.53;6305875;22;20323;-66
2023/08/13 01:57:09;;;;;;;;;;;;;;;-140.72;100.00;52597.84;6307642;22;19915;-66
2023/08/13 01:59:34;;;;;;;;;;;;;;;-140.72;100.00;52630.31;6309816;22;20036;-66
2023/08/13 02:02:00;;;;;;;;;;;;;;;-140.72;100.00;52612.03;6309225;22;19957;-67
2023/08/13 02:04:25;;;;;;;;;;;;;;;-140.72;100.00;52626.25;6307960;22;19922;-68
2023/08/13 02:06:50;;;;;;;;;;;;;;;-140.72;100.00;52605.94;6309772;22;19911;-67
2023/08/13 02:09:15;;;;;;;;;;;;;;;-140.72;100.00;52630.31;6309810;22;19968;-67
2023/08/13 02:11:41;;;;;;;;;;;;;;;-140.72;100.00;52614.06;6307667;22;19980;-67
2023/08/13 02:14:06;;;;;;;;;;;;;;;-140.72;100.00;52593.78;6309290;22;20336;-67
2023/08/13 02:16:31;;;;;;;;;;;;;;;-140.72;100.00;52640.44;6309491;22;20281;-68
2023/08/13 02:18:56;;;;;;;;;;;;;;;-140.72;100.00;52605.94;6309597;22;20331;-67
2023/08/13 02:21:22;;;;;;;;;;;;;;;-140.72;100.00;52636.38;6309969;22;19911;-68
2023/08/13 02:23:47;;;;;;;;;;;;;;;-140.72;100.00;52618.13;6310208;22;20315;-68
2023/08/13 02:26:14;;;;;;;;;;;;;;;-140.72;100.00;52612.03;6308364;22;19911;-67
2023/08/13 02:28:39;;;;;;;;;;;;;;;-140.72;100.00;52605.94;6309727;22;19961;-67
2023/08/13 02:31:04;;;;;;;;;;;;;;;-140.72;100.00;52638.41;6310398;22;19946;-67
2023/08/13 02:33:29;;;;;;;;;;;;;;;-140.72;100.00;52632.34;6308635;22;19911;-68
2023/08/13 02:35:55;;;;;;;;;;;;;;;-140.72;100.00;52658.72;6309716;22;19911;-67
2023/08/13 02:38:24;;;;;;;;;;;;;;;-140.72;100.00;52634.38;6308658;22;19925;-67
2023/08/13 02:40:51;;;;;;;;;;;;;;;-140.72;100.00;52616.09;6309370;22;19918;-67
2023/08/13 02:43:16;;;;;;;;;;;;;;;-140.72;100.00;52581.59;6307480;22;19962;-68
2023/08/13 02:45:41;;;;;;;;;;;;;;;-140.72;100.00;52662.78;6309237;22;19914;-67
2023/08/13 02:48:07;;;;;;;;;;;;;;;-140.72;100.00;52624.22;6309601;22;20214;-67
2023/08/13 02:50:36;;;;;;;;;;;;;;;-140.72;100.00;52614.06;6309127;22;19911;-67
2023/08/13 02:53:01;;;;;;;;;;;;;;;-140.72;100.00;52626.25;6309330;22;19911;-67
2023/08/13 02:55:26;;;;;;;;;;;;;;;-140.72;100.00;52626.25;6308957;22;19922;-67
2023/08/13 02:57:54;;;;;;;;;;;;;;;-140.72;100.00;52630.31;6309006;22;19915;-67
2023/08/13 03:00:19;;;;;;;;;;;;;;;-140.72;100.00;52666.84;6309284;22;19918;-67
2023/08/13 03:02:44;;;;;;;;;;;;;;;-140.72;100.00;52628.28;6309231;22;19985;-67
2023/08/13 03:05:10;;;;;;;;;;;;;;;-140.72;100.00;52646.53;6309056;22;19907;-67
2023/08/13 03:07:35;;;;;;;;;;;;;;;-140.72;100.00;52646.53;6308563;22;19922;-67
2023/08/13 03:10:00;;;;;;;;;;;;;;;-140.72;100.00;52634.38;6308857;22;19907;-67
2023/08/13 03:12:25;;;;;;;;;;;;;;;-140.72;100.00;52630.31;6307542;22;20384;-67
2023/08/13 03:14:51;;;;;;;;;;;;;;;-140.72;100.00;52630.31;6309056;22;20319;-68
2023/08/13 03:17:16;;;;;;;;;;;;;;;-140.72;100.00;52662.78;6307409;22;20298;-67
2023/08/13 03:19:41;;;;;;;;;;;;;;;-140.72;100.00;52648.56;6308996;22;20238;-67
2023/08/13 03:22:07;;;;;;;;;;;;;;;-140.72;100.00;52636.38;6308904;22;20246;-67
2023/08/13 03:24:32;;;;;;;;;;;;;;;-140.72;100.00;52628.28;6309110;22;19915;-68
2023/08/13 03:26:57;;;;;;;;;;;;;;;-140.72;100.00;52638.41;6310149;22;19911;-68
2023/08/13 03:29:23;;;;;;;;;;;;;;;-140.72;100.00;52620.16;6307489;22;19964;-67
2023/08/13 03:31:48;;;;;;;;;;;;;;;-140.72;100.00;52618.13;6308731;22;19959;-67
2023/08/13 03:34:13;;;;;;;;;;;;;;;-140.72;100.00;52642.47;6308813;22;20208;-67
2023/08/13 03:36:38;;;;;;;;;;;;;;;-140.72;100.00;52616.09;6307275;22;20289;-67
2023/08/13 03:39:04;;;;;;;;;;;;;;;-140.72;100.00;52628.28;6308472;22;19918;-67
2023/08/13 03:41:29;;;;;;;;;;;;;;;-140.72;100.00;52666.84;6308401;22;19911;-68
2023/08/13 03:43:54;;;;;;;;;;;;;;;-140.72;100.00;52658.72;6308845;22;19969;-67
2023/08/13 03:46:19;;;;;;;;;;;;;;;-140.72;100.00;52654.66;6308456;22;19919;-67
2023/08/13 03:48:44;;;;;;;;;;;;;;;-140.72;100.00;52666.84;6308900;22;19965;-67
2023/08/13 03:51:10;;;;;;;;;;;;;;;-140.72;100.00;52642.47;6308655;22;19911;-67
2023/08/13 03:53:35;;;;;;;;;;;;;;;-140.72;100.00;52632.34;6308648;22;19921;-67
2023/08/13 03:56:04;;;;;;;;;;;;;;;-140.72;100.00;52650.59;6308168;22;19915;-67
2023/08/13 03:58:31;;;;;;;;;;;;;;;-140.72;100.00;52654.66;6308640;22;20243;-67
2023/08/13 04:01:02;;;;;;;;;;;;;;;-140.72;100.00;52624.22;6308987;22;20323;-67
2023/08/13 04:03:27;;;;;;;;;;;;;;;-140.72;100.00;52687.13;6308704;22;19990;-67
2023/08/13 04:05:53;;;;;;;;;;;;;;;-140.72;100.00;52681.03;6308510;22;19961;-67
2023/08/13 04:08:18;;;;;;;;;;;;;;;-140.72;100.00;52670.88;6306827;22;19911;-67
2023/08/13 04:10:43;;;;;;;;;;;;;;;-140.72;100.00;52646.53;6308472;22;19926;-67
2023/08/13 04:13:08;;;;;;;;;;;;;;;-140.72;100.00;52640.44;6306491;22;19911;-67
2023/08/13 04:15:35;;;;;;;;;;;;;;;-140.72;100.00;52666.84;6308807;22;20320;-68
2023/08/13 04:18:00;;;;;;;;;;;;;;;-140.72;100.00;52662.78;6308470;22;19911;-68
2023/08/13 04:20:25;;;;;;;;;;;;;;;-140.72;100.00;52654.66;6306641;22;19919;-67
2023/08/13 04:22:51;;;;;;;;;;;;;;;-140.72;100.00;52642.47;6308080;22;19911;-67
2023/08/13 04:25:16;;;;;;;;;;;;;;;-140.72;100.00;52683.06;6308766;22;19911;-67
2023/08/13 04:27:41;;;;;;;;;;;;;;;-140.72;100.00;52650.59;6307074;22;20323;-67
2023/08/13 04:30:07;;;;;;;;;;;;;;;-140.72;100.00;52626.25;6308170;22;19911;-67
2023/08/13 04:32:38;;;;;;;;;;;;;;;-140.72;100.00;52626.25;6306726;22;19985;-67
2023/08/13 04:35:04;;;;;;;;;;;;;;;-140.72;100.00;52650.59;6308928;22;19911;-67
2023/08/13 04:37:29;;;;;;;;;;;;;;;-140.72;100.00;52654.66;6308705;22;19918;-67
2023/08/13 04:39:56;;;;;;;;;;;;;;;-140.72;100.00;52662.78;6306487;22;19910;-66
2023/08/13 04:42:21;;;;;;;;;;;;;;;-140.72;100.00;52652.63;6308101;22;20323;-67
2023/08/13 04:44:46;;;;;;;;;;;;;;;-140.72;100.00;52622.19;6307657;22;19918;-66
2023/08/13 04:47:12;;;;;;;;;;;;;;;-140.72;100.00;52662.78;6307955;22;19911;-67
2023/08/13 04:49:37;;;;;;;;;;;;;;;-140.72;100.00;52650.59;6307528;22;19946;-67
2023/08/13 04:52:02;;;;;;;;;;;;;;;-140.72;100.00;52630.31;6306686;22;19911;-67
2023/08/13 04:54:27;;;;;;;;;;;;;;;-140.72;100.00;52654.66;6308716;22;19915;-66
2023/08/13 04:56:53;;;;;;;;;;;;;;;-140.72;100.00;52638.41;6308878;22;19926;-66
2023/08/13 04:59:18;;;;;;;;;;;;;;;-140.72;100.00;52610.00;6308293;22;19946;-68
2023/08/13 05:01:43;;;;;;;;;;;;;;;-140.72;100.00;52614.06;6306492;22;20323;-67
2023/08/13 05:04:08;;;;;;;;;;;;;;;-140.72;100.00;52652.63;6307883;22;20345;-66
2023/08/13 05:06:34;;;;;;;;;;;;;;;-140.72;100.00;52687.13;6308379;22;20358;-67
2023/08/13 05:08:59;;;;;;;;;;;;;;;-140.72;100.00;52650.59;6307312;22;19911;-68
2023/08/13 05:11:24;;;;;;;;;;;;;;;-140.72;100.00;52658.72;6307918;22;19918;-66
2023/08/13 05:13:49;;;;;;;;;;;;;;;-140.72;100.00;52632.34;6307636;22;20303;-66
2023/08/13 05:16:15;;;;;;;;;;;;;;;-140.72;100.00;52640.44;6305736;22;20335;-66
2023/08/13 05:18:40;;;;;;;;;;;;;;;-140.72;100.00;52638.41;6307527;22;19915;-67
2023/08/13 05:21:06;;;;;;;;;;;;;;;-140.72;100.00;52636.38;6308103;22;19976;-67
2023/08/13 05:23:31;;;;;;;;;;;;;;;-140.72;100.00;52644.50;6307767;22;20344;-67
2023/08/13 05:25:56;;;;;;;;;;;;;;;-140.72;100.00;52685.09;6309734;22;19918;-67
2023/08/13 05:28:22;;;;;;;;;;;;;;;-140.72;100.00;52652.63;6307535;22;19915;-67
2023/08/13 05:30:47;;;;;;;;;;;;;;;-140.72;100.00;52634.38;6307685;22;19911;-67
2023/08/13 05:33:12;;;;;;;;;;;;;;;-140.72;100.00;52636.38;6306151;22;20005;-67
2023/08/13 05:35:37;;;;;;;;;;;;;;;-140.72;100.00;52642.47;6307834;22;20016;-68
2023/08/13 05:38:03;;;;;;;;;;;;;;;-140.72;100.00;52662.78;6306076;22;19910;-67
2023/08/13 05:40:30;;;;;;;;;;;;;;;-140.72;100.00;52642.47;6307580;22;19911;-68
2023/08/13 05:42:55;;;;;;;;;;;;;;;-140.72;100.00;52670.88;6307341;22;19938;-68
2023/08/13 05:45:20;;;;;;;;;;;;;;;-140.72;100.00;52610.00;6306100;22;19965;-68
2023/08/13 05:47:46;;;;;;;;;;;;;;;-140.72;100.00;52666.84;6307308;22;19915;-68
2023/08/13 05:50:11;;;;;;;;;;;;;;;-140.72;100.00;52648.56;6307634;22;19964;-68
2023/08/13 05:52:36;;;;;;;;;;;;;;;-140.72;100.00;52644.50;6305848;22;19963;-70
2023/08/13 05:55:01;;;;;;;;;;;;;;;-140.72;100.00;52622.19;6307122;22;19918;-74
2023/08/13 05:57:27;;;;;;;;;;;;;;;-140.72;100.00;52593.78;6306297;22;19915;-73
2023/08/13 05:59:52;;;;;;;;;;;;;;;-140.72;100.00;52622.19;6308279;22;19915;-73
2023/08/13 06:02:17;;;;;;;;;;;;;;;-140.72;100.00;52607.97;6307818;22;19918;-75
2023/08/13 06:04:43;;;;;;;;;;;;;;;-140.72;100.00;52622.19;6307989;22;19911;-73
2023/08/13 06:07:08;;;;;;;;;;;;;;;-140.72;100.00;52632.34;6307664;22;19963;-74
2023/08/13 06:09:33;;;;;;;;;;;;;;;-140.72;100.00;52605.94;6308039;22;19911;-73
2023/08/13 06:11:59;;;;;;;;;;;;;;;-140.72;100.00;52626.25;6305863;22;19985;-73
2023/08/13 06:14:24;;;;;;;;;;;;;;;-140.72;100.00;52642.47;6307590;22;19957;-75
2023/08/13 06:16:49;;;;;;;;;;;;;;;-140.72;100.00;52616.09;6308336;22;20246;-74
2023/08/13 06:19:14;;;;;;;;;;;;;;;-140.72;100.00;52603.94;6306865;22;19911;-73
2023/08/13 06:21:40;;;;;;;;;;;;;;;-140.72;100.00;52605.94;6306181;22;19918;-74
2023/08/13 06:24:05;;;;;;;;;;;;;;;-140.72;100.00;52603.94;6308344;22;19922;-73
2023/08/13 06:26:31;;;;;;;;;;;;;;;-140.72;100.00;52624.22;6308246;22;19911;-73
2023/08/13 06:28:56;;;;;;;;;;;;;;;-140.72;100.00;52585.66;6306250;22;20381;-73
2023/08/13 06:31:21;;;;;;;;;;;;;;;-140.72;100.00;52595.81;6307525;22;20345;-74
2023/08/13 06:33:46;;;;;;;;;;;;;;;-140.72;100.00;52585.66;6305930;22;20689;-74
2023/08/13 06:36:12;;;;;;;;;;;;;;;-140.72;100.00;52610.00;6307498;22;19910;-74
2023/08/13 06:38:37;;;;;;;;;;;;;;;-140.72;100.00;52565.38;6306243;22;19918;-74
2023/08/13 06:41:03;;;;;;;;;;;;;;;-140.72;100.00;52561.31;6305892;22;19911;-74
2023/08/13 06:43:29;;;;;;;;;;;;;;;-140.72;100.00;52565.38;6307508;22;20274;-73
2023/08/13 06:45:54;;;;;;;;;;;;;;;-140.72;100.00;52599.88;6309215;22;20327;-73
2023/08/13 06:48:19;;;;;;;;;;;;;;;-140.72;100.00;52547.09;6309309;22;19910;-73
2023/08/13 06:50:48;;;;;;;;;;;;;;;-140.72;100.00;52577.53;6309498;22;19914;-73
2023/08/13 06:53:13;;;;;;;;;;;;;;;-140.72;100.00;52565.38;6309712;22;19917;-73
2023/08/13 06:55:38;;;;;;;;;;;;;;;-140.72;100.00;52532.91;6308837;22;19915;-73
2023/08/13 06:58:04;;;;;;;;;;;;;;;-140.72;100.00;52536.97;6308400;22;19965;-77
2023/08/13 07:00:29;;;;;;;;;;;;;;;-140.72;100.00;52561.31;6308307;22;19960;-74
2023/08/13 07:02:54;;;;;;;;;;;;;;;-140.72;100.00;52569.44;6310372;22;19911;-80
2023/08/13 07:05:20;;;;;;;;;;;;;;;-140.72;100.00;52543.03;6308222;22;20247;-74
2023/08/13 07:07:45;;;;;;;;;;;;;;;-140.72;100.00;52512.59;6309282;22;20224;-74
2023/08/13 07:10:10;;;;;;;;;;;;;;;-140.72;100.00;52524.78;6307723;22;19914;-76
2023/08/13 07:12:36;;;;;;;;;;;;;;;-140.72;100.00;52534.94;6307619;22;19915;-75
2023/08/13 07:15:03;;;;;;;;;;;;;;;-140.72;100.00;52494.34;6308660;22;19953;-78
2023/08/13 07:17:29;;;;;;;;;;;;;;;-140.72;100.00;52488.25;6307650;22;19946;-74
2023/08/13 07:19:54;;;;;;;;;;;;;;;-140.72;100.00;52506.53;6307336;22;19918;-73
2023/08/13 07:22:21;;;;;;;;;;;;;;;-140.72;100.00;52516.66;6309041;22;19936;-72
2023/08/13 07:24:46;;;;;;;;;;;;;;;-140.72;100.00;52541.03;6310263;22;19915;-75
2023/08/13 07:27:12;;;;;;;;;;;;;;;-140.72;100.00;52530.88;6308508;22;19962;-75
2023/08/13 07:29:37;;;;;;;;;;;;;;;-140.72;100.00;52524.78;6307952;22;19917;-76
2023/08/13 07:32:02;;;;;;;;;;;;;;;-140.72;100.00;52512.59;6307715;22;19911;-75
2023/08/13 07:34:28;;;;;;;;;;;;;;;-140.72;100.00;52496.38;6309250;22;20020;-77
2023/08/13 07:36:53;;;;;;;;;;;;;;;-140.72;100.00;52490.28;6311735;22;19911;-77
2023/08/13 07:39:18;;;;;;;;;;;;;;;-140.72;100.00;52476.09;6311272;22;19911;-73
2023/08/13 07:41:46;;;;;;;;;;;;;;;-140.72;100.00;52480.16;6309293;22;19933;-76
2023/08/13 07:44:13;;;;;;;;;;;;;;;-140.72;100.00;52472.03;6309928;22;19911;-73
2023/08/13 07:46:38;;;;;;;;;;;;;;;-140.72;100.00;52508.56;6309557;22;19910;-77
2023/08/13 07:49:03;;;;;;;;;;;;;;;-140.72;100.00;52496.38;6308194;22;19933;-72
2023/08/13 07:51:29;;;;;;;;;;;;;;;-140.72;100.00;52486.22;6308945;22;20259;-73
2023/08/13 07:53:54;;;;;;;;;;;;;;;-140.72;100.00;52472.03;6308930;22;19946;-79
2023/08/13 07:56:19;;;;;;;;;;;;;;;-140.72;100.00;52472.03;6311309;22;19915;-78
2023/08/13 07:58:46;;;;;;;;;;;;;;;-140.72;100.00;52441.59;6279195;22;20494;-73
2023/08/13 08:01:12;;;;;;;;;;;;;;;-140.72;100.00;52465.94;6278395;22;19916;-76
2023/08/13 08:03:37;;;;;;;;;;;;;;;-140.72;100.00;52465.94;6277333;22;20304;-74
2023/08/13 08:06:03;;;;;;;;;;;;;;;-140.72;89.17;52470.00;6278086;22;19912;-73
2023/08/13 08:08:28;;;;;;;;;;;;;;;-140.72;64.71;52437.53;6302618;22;19915;-76
2023/08/13 08:10:54;;;;;;;;;;;;;;;-140.72;60.35;52429.41;6302353;22;19915;-73
2023/08/13 08:13:19;;;;;;;;;;;;;;;-140.72;56.48;52437.53;6301915;22;19917;-75
2023/08/13 08:15:44;;;;;;;;;;;;;;;-140.72;53.64;52427.38;6277742;22;19943;-75
2023/08/13 08:18:09;;;;;;;;;;;;;;;-140.72;50.44;52457.81;6277971;22;20251;-76
2023/08/13 08:20:35;;;;;;;;;;;;;;;-140.72;41.71;52398.97;6277444;22;19918;-74
2023/08/13 08:23:01;;;;;;;;;;;;;;;-140.72;30.24;52439.56;6277341;22;19915;-75
2023/08/13 08:25:26;;;;;;;;;;;;;;;-140.72;19.65;52425.34;6280859;22;19915;-75
2023/08/13 08:27:51;;;;;;;;;;;;;;;-140.72;14.69;52453.75;6281662;22;20394;-77
2023/08/13 08:30:17;;;;;;;;;;;;;;;-140.72;14.58;52467.97;6276830;22;19998;-75
2023/08/13 08:32:42;;;;;;;;;;;;;;;-140.72;20.63;52467.97;6276637;22;19942;-76
2023/08/13 08:35:07;;;;;;;;;;;;;;;-140.72;25.25;52488.25;6276894;22;19911;-75
2023/08/13 08:37:33;;;;;;;;;;;;;;;-140.72;22.66;52463.91;6279075;22;19911;-74
2023/08/13 08:39:59;;;;;;;;;;;;;;;-140.72;24.95;52476.09;6277085;22;19919;-76
2023/08/13 08:42:25;;;;;;;;;;;;;;;-140.72;22.54;52500.44;6277537;22;19915;-75
2023/08/13 08:44:50;;;;;;;;;;;;;;;-140.72;16.18;52463.91;6277607;22;19911;-78
2023/08/13 08:47:16;;;;;;;;;;;;;;;-140.72;15.21;52476.09;6275600;22;19960;-77
2023/08/13 08:49:45;;;;;;;;;;;;;;;-140.72;11.86;52465.94;6276288;22;19911;-76
2023/08/13 08:52:10;;;;;;;;;;;;;;;-140.72;13.04;52476.09;6278332;22;19911;-76
2023/08/13 08:54:37;;;;;;;;;;;;;;;-140.72;22.77;52409.13;6277322;22;19941;-76
2023/08/13 08:57:02;;;;;;;;;;;;;;;-140.72;24.01;52467.97;6275928;22;20010;-76
2023/08/13 08:59:28;;;;;;;;;;;;;;;-140.72;22.24;52459.84;6276825;22;19915;-79
2023/08/13 09:01:53;;;;;;;;;;;;;;;-140.72;19.26;52463.91;6303523;22;20261;-77
2023/08/13 09:04:18;;;;;;;;;;;;;;;-140.72;19.06;52439.56;6277566;22;19915;-77
2023/08/13 09:06:57;;;;;;;;;;;;;;;-140.72;15.94;52484.19;6276595;22;20278;-77
2023/08/13 09:09:23;;;;;;;;;;;;;;;-140.72;11.13;52455.78;6277205;22;19911;-76
2023/08/13 09:11:48;;;;;;;;;;;;;;;-140.72;4.16;52447.69;6278429;22;19965;-80
2023/08/13 09:14:14;;;;;;;;;;;;;;;-140.72;6.15;52488.25;6277020;22;19911;-76
2023/08/13 09:16:50;;;;;;;;;;;;;;;-140.72;3.57;52480.16;6276083;22;20317;-75
2023/08/13 09:19:16;;;;;;;;;;;;;;;-140.72;11.07;52526.81;6276301;22;19919;-76
2023/08/13 09:21:49;;;;;;;;;;;;;;;-140.72;7.87;52480.16;6278178;22;19911;-76
2023/08/13 09:24:14;;;;;;;;;;;;;;;-140.72;6.04;52433.47;6277635;22;19911;-78
2023/08/13 09:26:40;;;;;;;;;;;;;;;-140.72;1.01;52429.41;6286623;22;20359;-78
2023/08/13 09:29:07;;;;;;;;;;;;;;;-140.72;0.00;52411.16;6302837;22;19918;-75
2023/08/13 09:31:32;;;;;;;;;;;;;;;-140.72;0.00;52392.88;6275854;22;19918;-76
2023/08/13 09:33:57;;;;;;;;;;;;;;;-140.72;0.00;52435.50;6276478;22;20282;-77
2023/08/13 09:36:22;;;;;;;;;;;;;;;-140.72;0.00;52407.09;6276711;22;19961;-76
2023/08/13 09:38:48;;;;;;;;;;;;;;;-140.72;0.00;52455.78;6276621;22;19912;-82
2023/08/13 09:41:13;;;;;;;;;;;;;;;-140.72;0.00;52419.28;6276617;22;19957;-76
2023/08/13 09:43:39;;;;;;;;;;;;;;;-140.72;0.00;52429.41;6276627;22;19949;-76
2023/08/13 09:46:06;;;;;;;;;;;;;;;-140.72;0.00;52392.88;6276141;22;20318;-73
2023/08/13 09:48:32;;;;;;;;;;;;;;;-140.72;0.00;52405.06;6275942;22;19912;-73
2023/08/13 09:50:59;;;;;;;;;;;;;;;-140.72;0.00;52390.84;6275762;22;19911;-75
2023/08/13 09:53:25;;;;;;;;;;;;;;;-140.72;0.00;52411.16;6276091;22;19919;-76
2023/08/13 09:55:51;;;;;;;;;;;;;;;-140.72;0.00;52398.97;6275902;22;19916;-76
2023/08/13 09:58:17;;;;;;;;;;;;;;;-140.72;0.00;52417.25;6275848;22;19915;-73
2023/08/13 10:00:43;;;;;;;;;;;;;;;-140.72;0.00;52376.66;6275720;22;19942;-74
2023/08/13 10:03:09;;;;;;;;;;;;;;;-140.72;0.00;52396.94;6275705;22;19990;-74
2023/08/13 10:05:35;;;;;;;;;;;;;;;-140.72;0.00;52417.25;6275541;22;19911;-75
2023/08/13 10:08:01;;;;;;;;;;;;;;;-140.72;0.00;52407.09;6275556;22;19911;-75
2023/08/13 10:10:26;;;;;;;;;;;;;;;-140.72;0.00;52411.16;6275237;22;20003;-78
2023/08/13 10:12:52;;;;;;;;;;;;;;;-140.72;0.00;52405.06;6277282;22;19996;-75
2023/08/13 10:15:19;;;;;;;;;;;;;;;-140.72;0.00;52435.50;6275350;22;19912;-74
2023/08/13 10:17:45;;;;;;;;;;;;;;;-140.72;0.00;52472.03;6278325;22;19915;-74
2023/08/13 10:20:10;;;;;;;;;;;;;;;-140.72;0.00;52502.47;6276770;22;20194;-74
2023/08/13 10:22:37;;;;;;;;;;;;;;;-140.72;0.00;52455.78;6278972;22;19922;-74
2023/08/13 10:25:03;;;;;;;;;;;;;;;-140.72;0.00;52435.50;6280501;22;20045;-78
2023/08/13 10:27:29;;;;;;;;;;;;;;;-140.72;0.00;52461.88;6280837;22;19915;-79
2023/08/13 10:30:07;;;;;;;;;;;;;;;-140.72;0.00;52431.44;6276930;22;20292;-73
2023/08/13 10:32:36;;;;;;;;;;;;;;;-140.72;0.00;52439.56;6279464;22;19956;-73
2023/08/13 10:35:19;;;;;;;;;;;;;;;-140.72;0.00;52394.91;6277256;22;20378;-73
2023/08/13 10:37:48;;;;;;;;;;;;;;;-140.72;0.00;52447.69;6277532;22;19946;-73
2023/08/13 10:40:15;;;;;;;;;;;;;;;-140.72;0.00;52366.50;6277607;22;20316;-72
2023/08/13 10:42:43;;;;;;;;;;;;;;;-140.72;0.00;52398.97;6277972;22;19911;-73
2023/08/13 10:45:09;;;;;;;;;;;;;;;-140.72;0.00;52279.25;6279440;22;20315;-73
2023/08/13 10:47:38;;;;;;;;;;;;;;;-140.72;0.00;52293.47;6277751;22;19961;-68
2023/08/13 10:50:06;;;;;;;;;;;;;;;-140.72;0.00;52192.00;6278286;22;19917;-68
2023/08/13 10:52:32;;;;;;;;;;;;;;;-140.72;0.00;52232.59;6302415;22;19937;-70
2023/08/13 10:54:57;;;;;;;;;;;;;;;-140.72;0.00;52210.28;6275986;22;19911;-71
2023/08/13 10:57:26;;;;;;;;;;;;;;;-140.72;0.00;52177.81;6280571;22;19915;-67
2023/08/13 10:59:52;;;;;;;;;;;;;;;-140.72;0.00;52175.78;6278071;22;20324;-67
2023/08/13 11:02:21;;;;;;;;;;;;;;;-140.72;0.00;52250.84;6277739;22;19911;-67
2023/08/13 11:04:50;;;;;;;;;;;;;;;-140.72;0.00;52240.72;6302073;22;19916;-67
2023/08/13 11:07:15;;;;;;;;;;;;;;;-140.72;0.00;52289.41;6278445;22;19918;-67
2023/08/13 11:09:42;;;;;;;;;;;;;;;-140.72;0.00;52319.84;6277826;22;19939;-67
2023/08/13 11:12:08;;;;;;;;;;;;;;;-140.72;0.00;52301.59;6278338;22;20320;-67
2023/08/13 11:14:34;;;;;;;;;;;;;;;-140.72;0.00;52315.78;6276297;22;19994;-70
2023/08/13 11:17:00;;;;;;;;;;;;;;;-140.72;0.00;52372.59;6276564;22;19965;-68
2023/08/13 11:19:25;;;;;;;;;;;;;;;-140.72;0.00;52407.09;6278048;22;20269;-67
2023/08/13 11:21:51;;;;;;;;;;;;;;;-140.72;0.00;52398.97;6276372;22;19989;-67
2023/08/13 11:24:18;;;;;;;;;;;;;;;-140.72;0.00;52415.22;6278513;22;19922;-67
2023/08/13 11:26:44;;;;;;;;;;;;;;;-140.72;0.00;52423.31;6280531;22;19987;-67
2023/08/13 11:29:09;;;;;;;;;;;;;;;-140.72;0.00;52431.44;6303313;22;19912;-67
2023/08/13 11:31:35;;;;;;;;;;;;;;;-140.72;0.00;52398.97;6278339;22;20272;-67
2023/08/13 11:34:00;;;;;;;;;;;;;;;-140.72;0.00;52413.19;6278602;22;19911;-67
2023/08/13 11:36:26;;;;;;;;;;;;;;;-140.72;0.00;52439.56;6278008;22;20045;-68
2023/08/13 11:38:51;;;;;;;;;;;;;;;-140.72;0.00;52390.84;6278044;22;19919;-66
2023/08/13 11:41:16;;;;;;;;;;;;;;;-140.72;0.00;52386.81;6277820;22;19981;-66
2023/08/13 11:43:42;;;;;;;;;;;;;;;-140.72;0.00;52386.81;6277835;22;19973;-67
2023/08/13 11:46:07;;;;;;;;;;;;;;;-140.72;0.00;52411.16;6277396;22;19990;-71
2023/08/13 11:48:37;;;;;;;;;;;;;;;-140.72;0.00;52394.91;6276029;22;19918;-67
2023/08/13 11:51:15;;;;;;;;;;;;;;;-140.72;0.00;52431.44;6277868;22;19911;-67
2023/08/13 11:53:45;;;;;;;;;;;;;;;-140.72;0.00;52350.28;6276194;22;19989;-67
2023/08/13 11:56:12;;;;;;;;;;;;;;;-140.72;0.00;52330.00;6277315;22;19968;-67
2023/08/13 11:58:38;;;;;;;;;;;;;;;-140.72;0.00;52386.81;6276265;22;20224;-69
2023/08/13 12:01:03;;;;;;;;;;;;;;;-140.72;0.00;52362.44;6277789;22;19912;-68
2023/08/13 12:03:35;;;;;;;;;;;;;;;-140.72;0.00;52392.88;6277619;22;19956;-68
2023/08/13 12:06:01;;;;;;;;;;;;;;;-140.72;0.00;52386.81;6277134;22;19911;-68
2023/08/13 12:08:27;;;;;;;;;;;;;;;-140.72;0.00;52419.28;6277411;22;20388;-68
2023/08/13 12:10:52;;;;;;;;;;;;;;;-140.72;0.00;52348.25;6277835;22;19942;-71
2023/08/13 12:13:34;;;;;;;;;;;;;;;-140.72;0.00;52336.06;6277275;22;19919;-68
2023/08/13 12:15:59;;;;;;;;;;;;;;;-140.72;0.00;52311.72;6277558;22;19964;-67
2023/08/13 12:18:34;;;;;;;;;;;;;;;-140.72;0.00;52325.94;6277349;22;19911;-70